Lebanon, Illinois
Current Conditions -  °F | °C
As of 5:58 PM on Saturday 25 Oct 2014 (Local Time) from KBLV Reporting Station
Clear Clear  
Wind Chill: 74°   Ceiling: Unl
Heat Index: 74°   Visibility: 10mi
Dew Point: 58°   Wind: 0mph
Humidity: 58%   Direction: NA
Pressure: 29.99"   Gusts: NA
Location:  38.6°N, 89.81°W
Report Text: KBLV 252258Z AUTO 00000KT 10SM CLR 23/15 A2999 RMK AO2 SLP157 T02340146 $
Loading
Personal Weather Stations






























Interactive Weather Map
Tropical Storm Tracking
New forecast layout! Learn more

10-Day Weather Forecast

Advertisements
Track Severe Weather on mobile